sensor_id;sensor_type;location;lat;lon;timestamp;P1;durP1;ratioP1;P2;durP2;ratioP2
44143;SDS011;68165;51.920;4.492;2023-04-25T00:01:20;17.90;;;5.05;;
44143;SDS011;68165;51.920;4.492;2023-04-25T00:03:47;21.70;;;5.07;;
44143;SDS011;68165;51.920;4.492;2023-04-25T00:06:13;19.60;;;3.70;;
44143;SDS011;68165;51.920;4.492;2023-04-25T00:08:38;16.65;;;2.70;;
44143;SDS011;68165;51.920;4.492;2023-04-25T00:11:04;17.60;;;3.58;;
44143;SDS011;68165;51.920;4.492;2023-04-25T00:13:30;17.30;;;3.20;;
44143;SDS011;68165;51.920;4.492;2023-04-25T00:15:55;14.70;;;2.50;;
44143;SDS011;68165;51.920;4.492;2023-04-25T00:18:23;25.10;;;4.18;;
44143;SDS011;68165;51.920;4.492;2023-04-25T00:20:49;21.02;;;2.90;;
44143;SDS011;68165;51.920;4.492;2023-04-25T00:23:18;16.15;;;2.65;;
44143;SDS011;68165;51.920;4.492;2023-04-25T00:25:44;16.00;;;2.42;;
44143;SDS011;68165;51.920;4.492;2023-04-25T00:28:10;21.35;;;3.17;;
44143;SDS011;68165;51.920;4.492;2023-04-25T00:30:37;16.60;;;2.92;;
44143;SDS011;68165;51.920;4.492;2023-04-25T00:33:03;26.60;;;4.20;;
44143;SDS011;68165;51.920;4.492;2023-04-25T00:35:29;11.68;;;2.85;;
44143;SDS011;68165;51.920;4.492;2023-04-25T00:37:54;11.75;;;3.08;;
44143;SDS011;68165;51.920;4.492;2023-04-25T00:40:20;11.07;;;2.45;;
44143;SDS011;68165;51.920;4.492;2023-04-25T00:42:45;18.02;;;2.53;;
44143;SDS011;68165;51.920;4.492;2023-04-25T00:45:12;9.57;;;3.05;;
44143;SDS011;68165;51.920;4.492;2023-04-25T00:47:41;19.13;;;3.35;;
44143;SDS011;68165;51.920;4.492;2023-04-25T00:50:07;8.82;;;2.65;;
44143;SDS011;68165;51.920;4.492;2023-04-25T00:52:33;15.73;;;3.35;;
44143;SDS011;68165;51.920;4.492;2023-04-25T00:54:59;13.35;;;3.17;;
44143;SDS011;68165;51.920;4.492;2023-04-25T00:57:25;13.88;;;2.42;;
44143;SDS011;68165;51.920;4.492;2023-04-25T00:59:51;16.10;;;2.67;;
44143;SDS011;68165;51.920;4.492;2023-04-25T01:02:17;13.50;;;3.22;;
44143;SDS011;68165;51.920;4.492;2023-04-25T01:04:45;13.98;;;2.40;;
44143;SDS011;68165;51.920;4.492;2023-04-25T01:07:12;12.82;;;2.55;;
44143;SDS011;68165;51.920;4.492;2023-04-25T01:09:38;9.98;;;2.95;;
44143;SDS011;68165;51.920;4.492;2023-04-25T01:12:03;11.85;;;2.75;;
44143;SDS011;68165;51.920;4.492;2023-04-25T01:14:29;7.00;;;1.83;;
44143;SDS011;68165;51.920;4.492;2023-04-25T01:16:55;20.67;;;3.10;;
44143;SDS011;68165;51.920;4.492;2023-04-25T01:19:20;19.02;;;2.97;;
44143;SDS011;68165;51.920;4.492;2023-04-25T01:21:45;15.80;;;2.80;;
44143;SDS011;68165;51.920;4.492;2023-04-25T01:24:11;11.15;;;2.45;;
44143;SDS011;68165;51.920;4.492;2023-04-25T01:26:37;14.38;;;2.83;;
44143;SDS011;68165;51.920;4.492;2023-04-25T01:29:04;18.08;;;2.65;;
44143;SDS011;68165;51.920;4.492;2023-04-25T01:31:30;8.38;;;2.03;;
44143;SDS011;68165;51.920;4.492;2023-04-25T01:33:57;18.58;;;3.08;;
44143;SDS011;68165;51.920;4.492;2023-04-25T01:36:22;11.43;;;2.42;;
44143;SDS011;68165;51.920;4.492;2023-04-25T01:38:47;17.63;;;3.30;;
44143;SDS011;68165;51.920;4.492;2023-04-25T01:41:13;11.23;;;1.98;;
44143;SDS011;68165;51.920;4.492;2023-04-25T01:43:39;15.95;;;3.00;;
44143;SDS011;68165;51.920;4.492;2023-04-25T01:46:05;13.88;;;2.13;;
44143;SDS011;68165;51.920;4.492;2023-04-25T01:48:31;12.65;;;2.28;;
44143;SDS011;68165;51.920;4.492;2023-04-25T01:50:56;9.07;;;2.08;;
44143;SDS011;68165;51.920;4.492;2023-04-25T01:53:22;11.93;;;2.55;;
44143;SDS011;68165;51.920;4.492;2023-04-25T01:55:47;14.85;;;2.42;;
44143;SDS011;68165;51.920;4.492;2023-04-25T01:58:13;9.57;;;1.85;;
44143;SDS011;68165;51.920;4.492;2023-04-25T02:00:38;12.93;;;2.08;;
44143;SDS011;68165;51.920;4.492;2023-04-25T02:03:05;9.23;;;2.38;;
44143;SDS011;68165;51.920;4.492;2023-04-25T02:05:37;13.50;;;2.50;;
44143;SDS011;68165;51.920;4.492;2023-04-25T02:08:04;13.35;;;1.98;;
44143;SDS011;68165;51.920;4.492;2023-04-25T02:10:32;13.32;;;2.53;;
44143;SDS011;68165;51.920;4.492;2023-04-25T02:12:58;7.65;;;2.33;;
44143;SDS011;68165;51.920;4.492;2023-04-25T02:15:23;14.40;;;2.78;;
44143;SDS011;68165;51.920;4.492;2023-04-25T02:17:48;16.15;;;3.20;;
44143;SDS011;68165;51.920;4.492;2023-04-25T02:20:14;11.07;;;2.20;;
44143;SDS011;68165;51.920;4.492;2023-04-25T02:22:41;15.38;;;2.72;;
44143;SDS011;68165;51.920;4.492;2023-04-25T02:25:07;13.60;;;2.10;;
44143;SDS011;68165;51.920;4.492;2023-04-25T02:27:34;10.73;;;2.08;;
44143;SDS011;68165;51.920;4.492;2023-04-25T02:29:59;11.77;;;1.70;;
44143;SDS011;68165;51.920;4.492;2023-04-25T02:32:25;12.43;;;2.17;;
44143;SDS011;68165;51.920;4.492;2023-04-25T02:34:50;14.50;;;2.35;;
44143;SDS011;68165;51.920;4.492;2023-04-25T02:37:15;9.27;;;2.63;;
44143;SDS011;68165;51.920;4.492;2023-04-25T02:39:41;9.40;;;2.00;;
44143;SDS011;68165;51.920;4.492;2023-04-25T02:42:06;8.23;;;1.73;;
44143;SDS011;68165;51.920;4.492;2023-04-25T02:44:31;6.20;;;1.63;;
44143;SDS011;68165;51.920;4.492;2023-04-25T02:46:57;15.05;;;2.92;;
44143;SDS011;68165;51.920;4.492;2023-04-25T02:49:22;6.88;;;2.33;;
44143;SDS011;68165;51.920;4.492;2023-04-25T02:51:48;9.18;;;2.30;;
44143;SDS011;68165;51.920;4.492;2023-04-25T02:54:13;9.75;;;2.35;;
44143;SDS011;68165;51.920;4.492;2023-04-25T02:56:39;13.27;;;2.35;;
44143;SDS011;68165;51.920;4.492;2023-04-25T02:59:05;9.13;;;2.22;;
44143;SDS011;68165;51.920;4.492;2023-04-25T03:01:30;10.75;;;2.50;;
44143;SDS011;68165;51.920;4.492;2023-04-25T03:03:55;12.93;;;2.83;;
44143;SDS011;68165;51.920;4.492;2023-04-25T03:06:21;14.00;;;2.00;;
44143;SDS011;68165;51.920;4.492;2023-04-25T03:08:46;10.30;;;2.33;;
44143;SDS011;68165;51.920;4.492;2023-04-25T03:11:11;5.70;;;1.60;;
44143;SDS011;68165;51.920;4.492;2023-04-25T10:16:29;1.67;;;0.73;;
44143;SDS011;68165;51.920;4.492;2023-04-25T10:18:55;6.70;;;1.65;;
44143;SDS011;68165;51.920;4.492;2023-04-25T10:21:21;5.25;;;0.93;;
44143;SDS011;68165;51.920;4.492;2023-04-25T10:23:48;4.95;;;1.00;;
44143;SDS011;68165;51.920;4.492;2023-04-25T10:26:14;5.93;;;1.70;;
44143;SDS011;68165;51.920;4.492;2023-04-25T10:28:56;7.03;;;1.20;;
44143;SDS011;68165;51.920;4.492;2023-04-25T10:31:25;7.60;;;1.25;;
44143;SDS011;68165;51.920;4.492;2023-04-25T10:33:51;6.67;;;1.40;;
44143;SDS011;68165;51.920;4.492;2023-04-25T10:36:18;5.38;;;1.08;;
44143;SDS011;68165;51.920;4.492;2023-04-25T10:38:47;5.93;;;1.13;;
44143;SDS011;68165;51.920;4.492;2023-04-25T10:41:13;7.90;;;1.40;;
44143;SDS011;68165;51.920;4.492;2023-04-25T10:48:51;7.53;;;1.48;;
44143;SDS011;68165;51.920;4.492;2023-04-25T10:54:06;4.40;;;1.20;;
44143;SDS011;68165;51.920;4.492;2023-04-25T10:56:35;7.78;;;1.30;;
44143;SDS011;68165;51.920;4.492;2023-04-25T10:59:09;6.20;;;1.50;;
44143;SDS011;68165;51.920;4.492;2023-04-25T11:01:43;8.77;;;1.17;;
44143;SDS011;68165;51.920;4.492;2023-04-25T11:04:20;5.78;;;1.30;;
44143;SDS011;68165;51.920;4.492;2023-04-25T11:07:07;9.25;;;1.33;;
44143;SDS011;68165;51.920;4.492;2023-04-25T11:09:39;8.52;;;1.55;;
44143;SDS011;68165;51.920;4.492;2023-04-25T11:12:07;8.52;;;1.30;;
44143;SDS011;68165;51.920;4.492;2023-04-25T11:14:33;4.53;;;1.02;;
44143;SDS011;68165;51.920;4.492;2023-04-25T11:16:59;4.97;;;1.20;;
44143;SDS011;68165;51.920;4.492;2023-04-25T11:19:27;3.22;;;0.90;;
44143;SDS011;68165;51.920;4.492;2023-04-25T11:21:57;8.27;;;1.40;;
44143;SDS011;68165;51.920;4.492;2023-04-25T11:24:27;5.78;;;1.05;;
44143;SDS011;68165;51.920;4.492;2023-04-25T11:26:53;5.80;;;0.90;;
44143;SDS011;68165;51.920;4.492;2023-04-25T11:29:21;6.68;;;1.40;;
44143;SDS011;68165;51.920;4.492;2023-04-25T11:31:47;5.35;;;1.05;;
44143;SDS011;68165;51.920;4.492;2023-04-25T11:34:16;9.93;;;1.67;;
44143;SDS011;68165;51.920;4.492;2023-04-25T11:36:43;5.80;;;0.90;;
44143;SDS011;68165;51.920;4.492;2023-04-25T11:39:10;8.05;;;1.20;;
44143;SDS011;68165;51.920;4.492;2023-04-25T11:41:36;5.80;;;0.80;;
44143;SDS011;68165;51.920;4.492;2023-04-25T11:44:02;3.13;;;0.68;;
44143;SDS011;68165;51.920;4.492;2023-04-25T11:46:28;6.15;;;0.90;;
44143;SDS011;68165;51.920;4.492;2023-04-25T11:48:54;7.25;;;1.58;;
44143;SDS011;68165;51.920;4.492;2023-04-25T11:51:20;3.65;;;0.88;;
44143;SDS011;68165;51.920;4.492;2023-04-25T11:53:46;5.60;;;0.60;;
44143;SDS011;68165;51.920;4.492;2023-04-25T11:56:11;6.72;;;1.20;;
44143;SDS011;68165;51.920;4.492;2023-04-25T12:01:28;4.65;;;1.13;;
44143;SDS011;68165;51.920;4.492;2023-04-25T12:03:56;7.18;;;1.50;;
44143;SDS011;68165;51.920;4.492;2023-04-25T12:06:25;10.38;;;1.15;;
44143;SDS011;68165;51.920;4.492;2023-04-25T12:09:01;5.10;;;1.00;;
44143;SDS011;68165;51.920;4.492;2023-04-25T12:11:26;4.40;;;0.90;;
44143;SDS011;68165;51.920;4.492;2023-04-25T12:13:52;5.80;;;1.00;;
44143;SDS011;68165;51.920;4.492;2023-04-25T12:16:18;3.60;;;1.00;;
44143;SDS011;68165;51.920;4.492;2023-04-25T12:18:44;2.45;;;0.95;;
44143;SDS011;68165;51.920;4.492;2023-04-25T12:21:09;6.28;;;1.48;;
44143;SDS011;68165;51.920;4.492;2023-04-25T12:23:35;5.93;;;0.90;;
44143;SDS011;68165;51.920;4.492;2023-04-25T12:26:03;8.35;;;1.65;;
44143;SDS011;68165;51.920;4.492;2023-04-25T12:28:29;4.05;;;0.85;;
44143;SDS011;68165;51.920;4.492;2023-04-25T12:31:04;4.75;;;1.10;;
44143;SDS011;68165;51.920;4.492;2023-04-25T12:33:32;5.97;;;1.45;;
44143;SDS011;68165;51.920;4.492;2023-04-25T12:36:02;7.50;;;1.30;;
44143;SDS011;68165;51.920;4.492;2023-04-25T12:38:38;4.15;;;1.15;;
44143;SDS011;68165;51.920;4.492;2023-04-25T12:41:05;6.72;;;1.52;;
44143;SDS011;68165;51.920;4.492;2023-04-25T12:43:31;5.07;;;1.70;;
44143;SDS011;68165;51.920;4.492;2023-04-25T12:45:56;6.63;;;0.98;;
44143;SDS011;68165;51.920;4.492;2023-04-25T12:48:22;9.43;;;2.00;;
44143;SDS011;68165;51.920;4.492;2023-04-25T12:50:48;9.82;;;1.20;;
44143;SDS011;68165;51.920;4.492;2023-04-25T12:53:15;4.93;;;0.90;;
44143;SDS011;68165;51.920;4.492;2023-04-25T12:55:41;7.97;;;1.30;;
44143;SDS011;68165;51.920;4.492;2023-04-25T12:58:07;5.53;;;1.02;;
44143;SDS011;68165;51.920;4.492;2023-04-25T13:00:32;4.88;;;1.00;;
44143;SDS011;68165;51.920;4.492;2023-04-25T13:02:58;5.38;;;1.17;;
44143;SDS011;68165;51.920;4.492;2023-04-25T13:05:24;5.15;;;1.08;;
44143;SDS011;68165;51.920;4.492;2023-04-25T13:07:50;4.47;;;1.25;;
44143;SDS011;68165;51.920;4.492;2023-04-25T13:10:16;11.05;;;1.33;;
44143;SDS011;68165;51.920;4.492;2023-04-25T13:12:42;2.95;;;0.68;;
44143;SDS011;68165;51.920;4.492;2023-04-25T13:15:08;7.43;;;1.33;;
44143;SDS011;68165;51.920;4.492;2023-04-25T13:17:36;8.57;;;1.00;;
44143;SDS011;68165;51.920;4.492;2023-04-25T13:20:01;6.68;;;1.33;;
44143;SDS011;68165;51.920;4.492;2023-04-25T13:22:28;5.20;;;0.98;;
44143;SDS011;68165;51.920;4.492;2023-04-25T13:24:54;10.75;;;1.17;;
44143;SDS011;68165;51.920;4.492;2023-04-25T13:27:19;5.88;;;1.02;;
44143;SDS011;68165;51.920;4.492;2023-04-25T13:29:44;3.95;;;1.20;;
44143;SDS011;68165;51.920;4.492;2023-04-25T13:32:10;4.25;;;0.80;;
44143;SDS011;68165;51.920;4.492;2023-04-25T13:34:35;4.18;;;0.93;;
44143;SDS011;68165;51.920;4.492;2023-04-25T13:37:00;5.45;;;0.93;;
44143;SDS011;68165;51.920;4.492;2023-04-25T13:39:26;2.72;;;0.85;;
44143;SDS011;68165;51.920;4.492;2023-04-25T13:41:51;3.92;;;0.85;;
44143;SDS011;68165;51.920;4.492;2023-04-25T13:44:16;3.38;;;0.70;;
44143;SDS011;68165;51.920;4.492;2023-04-25T13:46:42;5.07;;;1.00;;
44143;SDS011;68165;51.920;4.492;2023-04-25T13:49:07;5.85;;;1.30;;
44143;SDS011;68165;51.920;4.492;2023-04-25T13:51:32;4.43;;;1.17;;
44143;SDS011;68165;51.920;4.492;2023-04-25T13:53:59;4.22;;;1.20;;
44143;SDS011;68165;51.920;4.492;2023-04-25T13:56:25;4.15;;;1.10;;
44143;SDS011;68165;51.920;4.492;2023-04-25T13:58:51;5.97;;;1.25;;
44143;SDS011;68165;51.920;4.492;2023-04-25T14:01:18;6.80;;;1.02;;
44143;SDS011;68165;51.920;4.492;2023-04-25T14:03:45;6.47;;;1.23;;
44143;SDS011;68165;51.920;4.492;2023-04-25T14:06:10;3.60;;;0.90;;
44143;SDS011;68165;51.920;4.492;2023-04-25T14:08:37;8.52;;;1.15;;
44143;SDS011;68165;51.920;4.492;2023-04-25T14:11:03;5.68;;;0.75;;
44143;SDS011;68165;51.920;4.492;2023-04-25T14:13:28;5.35;;;1.23;;
44143;SDS011;68165;51.920;4.492;2023-04-25T14:15:53;5.05;;;0.90;;
44143;SDS011;68165;51.920;4.492;2023-04-25T14:18:19;5.57;;;1.27;;
44143;SDS011;68165;51.920;4.492;2023-04-25T14:20:45;3.72;;;0.95;;
44143;SDS011;68165;51.920;4.492;2023-04-25T14:23:10;5.35;;;1.10;;
44143;SDS011;68165;51.920;4.492;2023-04-25T14:25:36;3.47;;;1.25;;
44143;SDS011;68165;51.920;4.492;2023-04-25T14:28:01;3.20;;;1.10;;
44143;SDS011;68165;51.920;4.492;2023-04-25T14:30:26;4.50;;;0.77;;
44143;SDS011;68165;51.920;4.492;2023-04-25T14:32:52;4.82;;;1.10;;
44143;SDS011;68165;51.920;4.492;2023-04-25T14:35:17;3.67;;;0.70;;
44143;SDS011;68165;51.920;4.492;2023-04-25T14:37:42;4.95;;;0.90;;
44143;SDS011;68165;51.920;4.492;2023-04-25T14:40:09;6.28;;;1.27;;
44143;SDS011;68165;51.920;4.492;2023-04-25T14:42:35;5.45;;;1.13;;
44143;SDS011;68165;51.920;4.492;2023-04-25T14:45:02;2.33;;;0.75;;
44143;SDS011;68165;51.920;4.492;2023-04-25T14:47:28;3.78;;;1.10;;
44143;SDS011;68165;51.920;4.492;2023-04-25T14:49:54;2.45;;;0.77;;
44143;SDS011;68165;51.920;4.492;2023-04-25T14:52:20;4.10;;;0.90;;
44143;SDS011;68165;51.920;4.492;2023-04-25T14:54:46;5.30;;;1.23;;
44143;SDS011;68165;51.920;4.492;2023-04-25T14:57:11;6.68;;;1.35;;
44143;SDS011;68165;51.920;4.492;2023-04-25T14:59:37;7.60;;;1.73;;
44143;SDS011;68165;51.920;4.492;2023-04-25T15:02:02;8.10;;;2.50;;
44143;SDS011;68165;51.920;4.492;2023-04-25T15:04:28;7.03;;;1.88;;
44143;SDS011;68165;51.920;4.492;2023-04-25T15:06:53;5.28;;;1.85;;
44143;SDS011;68165;51.920;4.492;2023-04-25T15:09:18;3.90;;;0.93;;
44143;SDS011;68165;51.920;4.492;2023-04-25T15:11:44;4.57;;;0.95;;
44143;SDS011;68165;51.920;4.492;2023-04-25T15:14:10;4.32;;;1.42;;
44143;SDS011;68165;51.920;4.492;2023-04-25T15:16:35;3.92;;;0.90;;
44143;SDS011;68165;51.920;4.492;2023-04-25T15:19:01;6.15;;;0.93;;
44143;SDS011;68165;51.920;4.492;2023-04-25T15:21:29;2.80;;;0.95;;
44143;SDS011;68165;51.920;4.492;2023-04-25T15:23:55;5.85;;;1.17;;
44143;SDS011;68165;51.920;4.492;2023-04-25T15:26:21;4.20;;;1.02;;
44143;SDS011;68165;51.920;4.492;2023-04-25T15:28:46;7.40;;;0.90;;
44143;SDS011;68165;51.920;4.492;2023-04-25T15:31:12;9.88;;;1.38;;
44143;SDS011;68165;51.920;4.492;2023-04-25T15:33:37;2.17;;;0.85;;
44143;SDS011;68165;51.920;4.492;2023-04-25T15:36:03;1.98;;;1.10;;
44143;SDS011;68165;51.920;4.492;2023-04-25T15:38:28;8.27;;;1.42;;
44143;SDS011;68165;51.920;4.492;2023-04-25T15:40:53;9.43;;;1.45;;
44143;SDS011;68165;51.920;4.492;2023-04-25T15:43:19;3.33;;;0.95;;
44143;SDS011;68165;51.920;4.492;2023-04-25T15:45:44;6.43;;;1.23;;
44143;SDS011;68165;51.920;4.492;2023-04-25T15:48:10;9.57;;;1.77;;
44143;SDS011;68165;51.920;4.492;2023-04-25T15:50:35;3.22;;;1.00;;
44143;SDS011;68165;51.920;4.492;2023-04-25T15:53:01;6.22;;;1.30;;
44143;SDS011;68165;51.920;4.492;2023-04-25T15:55:27;5.43;;;1.10;;
44143;SDS011;68165;51.920;4.492;2023-04-25T15:57:52;3.97;;;1.00;;
44143;SDS011;68165;51.920;4.492;2023-04-25T16:00:17;5.57;;;1.52;;
44143;SDS011;68165;51.920;4.492;2023-04-25T16:02:45;3.35;;;1.20;;
44143;SDS011;68165;51.920;4.492;2023-04-25T16:05:12;4.53;;;1.02;;
44143;SDS011;68165;51.920;4.492;2023-04-25T16:07:41;3.33;;;1.00;;
44143;SDS011;68165;51.920;4.492;2023-04-25T16:10:08;5.70;;;0.95;;
44143;SDS011;68165;51.920;4.492;2023-04-25T16:12:35;3.10;;;1.23;;
44143;SDS011;68165;51.920;4.492;2023-04-25T16:15:01;7.35;;;1.23;;
44143;SDS011;68165;51.920;4.492;2023-04-25T16:17:27;5.63;;;0.80;;
44143;SDS011;68165;51.920;4.492;2023-04-25T16:19:54;4.82;;;0.90;;
44143;SDS011;68165;51.920;4.492;2023-04-25T16:22:23;7.22;;;1.15;;
44143;SDS011;68165;51.920;4.492;2023-04-25T16:24:49;5.70;;;1.42;;
44143;SDS011;68165;51.920;4.492;2023-04-25T16:27:14;4.88;;;1.30;;
44143;SDS011;68165;51.920;4.492;2023-04-25T16:29:40;7.53;;;1.52;;
44143;SDS011;68165;51.920;4.492;2023-04-25T16:32:06;6.50;;;1.67;;
44143;SDS011;68165;51.920;4.492;2023-04-25T16:34:32;6.70;;;1.38;;
44143;SDS011;68165;51.920;4.492;2023-04-25T16:36:57;6.72;;;1.00;;
44143;SDS011;68165;51.920;4.492;2023-04-25T16:39:23;8.85;;;1.17;;
44143;SDS011;68165;51.920;4.492;2023-04-25T16:41:48;4.45;;;1.50;;
44143;SDS011;68165;51.920;4.492;2023-04-25T16:44:14;3.50;;;1.08;;
44143;SDS011;68165;51.920;4.492;2023-04-25T16:46:39;8.68;;;1.92;;
44143;SDS011;68165;51.920;4.492;2023-04-25T16:49:05;5.70;;;1.10;;
44143;SDS011;68165;51.920;4.492;2023-04-25T16:51:30;4.72;;;1.00;;
44143;SDS011;68165;51.920;4.492;2023-04-25T16:53:56;7.03;;;1.17;;
44143;SDS011;68165;51.920;4.492;2023-04-25T16:56:22;4.85;;;0.98;;
44143;SDS011;68165;51.920;4.492;2023-04-25T16:58:48;6.28;;;1.52;;
44143;SDS011;68165;51.920;4.492;2023-04-25T17:01:14;8.52;;;1.80;;
44143;SDS011;68165;51.920;4.492;2023-04-25T17:03:41;9.38;;;1.27;;
44143;SDS011;68165;51.920;4.492;2023-04-25T17:06:08;6.00;;;1.20;;
44143;SDS011;68165;51.920;4.492;2023-04-25T17:08:34;8.88;;;1.92;;
44143;SDS011;68165;51.920;4.492;2023-04-25T17:11:00;6.15;;;1.70;;
44143;SDS011;68165;51.920;4.492;2023-04-25T17:13:25;6.20;;;1.23;;
44143;SDS011;68165;51.920;4.492;2023-04-25T17:15:51;5.80;;;1.48;;
44143;SDS011;68165;51.920;4.492;2023-04-25T17:18:17;9.93;;;1.48;;
44143;SDS011;68165;51.920;4.492;2023-04-25T17:20:42;6.05;;;1.75;;
44143;SDS011;68165;51.920;4.492;2023-04-25T17:23:07;8.10;;;1.63;;
44143;SDS011;68165;51.920;4.492;2023-04-25T17:25:34;8.35;;;1.63;;
44143;SDS011;68165;51.920;4.492;2023-04-25T17:28:00;10.05;;;1.75;;
44143;SDS011;68165;51.920;4.492;2023-04-25T17:30:25;7.63;;;1.48;;
44143;SDS011;68165;51.920;4.492;2023-04-25T17:32:51;7.07;;;1.67;;
44143;SDS011;68165;51.920;4.492;2023-04-25T17:35:16;5.82;;;1.45;;
44143;SDS011;68165;51.920;4.492;2023-04-25T17:37:43;8.13;;;1.70;;
44143;SDS011;68165;51.920;4.492;2023-04-25T17:40:10;3.58;;;1.58;;
44143;SDS011;68165;51.920;4.492;2023-04-25T17:42:38;8.68;;;1.27;;
44143;SDS011;68165;51.920;4.492;2023-04-25T17:45:04;5.72;;;1.40;;
44143;SDS011;68165;51.920;4.492;2023-04-25T17:47:31;7.88;;;2.42;;
44143;SDS011;68165;51.920;4.492;2023-04-25T17:49:56;10.50;;;1.77;;
44143;SDS011;68165;51.920;4.492;2023-04-25T17:52:22;6.07;;;1.60;;
44143;SDS011;68165;51.920;4.492;2023-04-25T17:54:48;9.05;;;1.60;;
44143;SDS011;68165;51.920;4.492;2023-04-25T17:57:13;11.43;;;1.63;;
44143;SDS011;68165;51.920;4.492;2023-04-25T17:59:39;6.15;;;1.42;;
44143;SDS011;68165;51.920;4.492;2023-04-25T18:02:07;9.48;;;2.05;;
44143;SDS011;68165;51.920;4.492;2023-04-25T18:04:32;10.82;;;1.65;;
44143;SDS011;68165;51.920;4.492;2023-04-25T18:06:59;7.80;;;1.63;;
44143;SDS011;68165;51.920;4.492;2023-04-25T18:09:25;12.45;;;1.60;;
44143;SDS011;68165;51.920;4.492;2023-04-25T18:11:50;9.38;;;2.17;;
44143;SDS011;68165;51.920;4.492;2023-04-25T18:14:17;10.57;;;2.03;;
44143;SDS011;68165;51.920;4.492;2023-04-25T18:16:44;5.97;;;1.55;;
44143;SDS011;68165;51.920;4.492;2023-04-25T18:19:11;10.60;;;2.85;;
44143;SDS011;68165;51.920;4.492;2023-04-25T18:21:42;9.63;;;1.63;;
44143;SDS011;68165;51.920;4.492;2023-04-25T18:24:12;6.50;;;1.55;;
44143;SDS011;68165;51.920;4.492;2023-04-25T18:26:38;5.68;;;1.33;;
44143;SDS011;68165;51.920;4.492;2023-04-25T18:29:04;4.05;;;1.33;;
44143;SDS011;68165;51.920;4.492;2023-04-25T18:31:31;10.55;;;1.58;;
44143;SDS011;68165;51.920;4.492;2023-04-25T18:33:57;9.68;;;1.48;;
44143;SDS011;68165;51.920;4.492;2023-04-25T18:36:23;9.40;;;1.77;;
44143;SDS011;68165;51.920;4.492;2023-04-25T18:38:49;8.68;;;1.75;;
44143;SDS011;68165;51.920;4.492;2023-04-25T18:41:19;4.57;;;1.25;;
44143;SDS011;68165;51.920;4.492;2023-04-25T18:43:48;8.35;;;1.42;;
44143;SDS011;68165;51.920;4.492;2023-04-25T18:46:15;7.53;;;1.27;;
44143;SDS011;68165;51.920;4.492;2023-04-25T18:48:41;3.47;;;1.08;;
44143;SDS011;68165;51.920;4.492;2023-04-25T18:51:07;4.90;;;1.50;;
44143;SDS011;68165;51.920;4.492;2023-04-25T18:53:33;4.07;;;1.15;;
44143;SDS011;68165;51.920;4.492;2023-04-25T18:55:58;16.30;;;4.28;;
44143;SDS011;68165;51.920;4.492;2023-04-25T18:58:25;8.52;;;3.33;;
44143;SDS011;68165;51.920;4.492;2023-04-25T19:00:50;9.63;;;2.90;;
44143;SDS011;68165;51.920;4.492;2023-04-25T19:03:15;10.02;;;2.47;;
44143;SDS011;68165;51.920;4.492;2023-04-25T19:05:41;6.97;;;1.95;;
44143;SDS011;68165;51.920;4.492;2023-04-25T19:08:06;8.10;;;1.95;;
44143;SDS011;68165;51.920;4.492;2023-04-25T19:10:32;6.97;;;2.00;;
44143;SDS011;68165;51.920;4.492;2023-04-25T19:12:57;8.93;;;2.03;;
44143;SDS011;68165;51.920;4.492;2023-04-25T19:15:22;5.90;;;2.08;;
44143;SDS011;68165;51.920;4.492;2023-04-25T19:17:48;5.90;;;1.65;;
44143;SDS011;68165;51.920;4.492;2023-04-25T19:20:13;7.05;;;1.80;;
44143;SDS011;68165;51.920;4.492;2023-04-25T19:22:38;8.30;;;1.70;;
44143;SDS011;68165;51.920;4.492;2023-04-25T19:25:04;6.72;;;1.83;;
44143;SDS011;68165;51.920;4.492;2023-04-25T19:27:29;7.47;;;1.98;;
44143;SDS011;68165;51.920;4.492;2023-04-25T19:29:55;8.98;;;2.33;;
44143;SDS011;68165;51.920;4.492;2023-04-25T19:32:31;6.28;;;1.90;;
44143;SDS011;68165;51.920;4.492;2023-04-25T19:34:57;10.48;;;1.85;;
44143;SDS011;68165;51.920;4.492;2023-04-25T19:37:23;5.88;;;2.10;;
44143;SDS011;68165;51.920;4.492;2023-04-25T19:39:48;7.97;;;1.73;;
44143;SDS011;68165;51.920;4.492;2023-04-25T19:42:13;5.75;;;1.70;;
44143;SDS011;68165;51.920;4.492;2023-04-25T19:44:39;8.98;;;1.80;;
44143;SDS011;68165;51.920;4.492;2023-04-25T19:47:05;6.72;;;2.20;;
44143;SDS011;68165;51.920;4.492;2023-04-25T19:49:30;10.82;;;2.85;;
44143;SDS011;68165;51.920;4.492;2023-04-25T19:51:56;5.18;;;1.52;;
44143;SDS011;68165;51.920;4.492;2023-04-25T19:54:22;8.15;;;1.95;;
44143;SDS011;68165;51.920;4.492;2023-04-25T19:56:47;9.40;;;1.60;;
44143;SDS011;68165;51.920;4.492;2023-04-25T19:59:13;8.50;;;1.70;;
44143;SDS011;68165;51.920;4.492;2023-04-25T20:01:38;7.78;;;2.10;;
44143;SDS011;68165;51.920;4.492;2023-04-25T20:04:03;6.50;;;1.52;;
44143;SDS011;68165;51.920;4.492;2023-04-25T20:06:29;10.38;;;1.90;;
44143;SDS011;68165;51.920;4.492;2023-04-25T20:08:57;8.95;;;2.10;;
44143;SDS011;68165;51.920;4.492;2023-04-25T20:11:23;5.40;;;2.28;;
44143;SDS011;68165;51.920;4.492;2023-04-25T20:13:52;7.35;;;1.60;;
44143;SDS011;68165;51.920;4.492;2023-04-25T20:16:17;7.32;;;2.13;;
44143;SDS011;68165;51.920;4.492;2023-04-25T20:18:45;6.93;;;2.17;;
44143;SDS011;68165;51.920;4.492;2023-04-25T20:21:12;9.40;;;2.22;;
44143;SDS011;68165;51.920;4.492;2023-04-25T20:23:37;7.82;;;2.05;;
44143;SDS011;68165;51.920;4.492;2023-04-25T20:26:03;7.07;;;2.17;;
44143;SDS011;68165;51.920;4.492;2023-04-25T20:28:28;15.98;;;2.85;;
44143;SDS011;68165;51.920;4.492;2023-04-25T20:30:53;8.52;;;2.45;;
44143;SDS011;68165;51.920;4.492;2023-04-25T20:33:19;8.43;;;2.55;;
44143;SDS011;68165;51.920;4.492;2023-04-25T20:35:45;5.13;;;2.17;;
44143;SDS011;68165;51.920;4.492;2023-04-25T20:38:12;11.52;;;2.78;;
44143;SDS011;68165;51.920;4.492;2023-04-25T20:40:38;13.63;;;2.50;;
44143;SDS011;68165;51.920;4.492;2023-04-25T20:43:03;6.13;;;2.53;;
44143;SDS011;68165;51.920;4.492;2023-04-25T20:45:29;11.68;;;2.17;;
44143;SDS011;68165;51.920;4.492;2023-04-25T20:47:56;7.18;;;2.33;;
44143;SDS011;68165;51.920;4.492;2023-04-25T20:50:22;8.05;;;1.98;;
44143;SDS011;68165;51.920;4.492;2023-04-25T20:52:47;8.73;;;2.58;;
44143;SDS011;68165;51.920;4.492;2023-04-25T20:55:13;8.65;;;2.10;;
44143;SDS011;68165;51.920;4.492;2023-04-25T20:57:38;7.82;;;2.42;;
44143;SDS011;68165;51.920;4.492;2023-04-25T21:00:04;10.27;;;2.03;;
44143;SDS011;68165;51.920;4.492;2023-04-25T21:02:42;5.55;;;1.83;;
44143;SDS011;68165;51.920;4.492;2023-04-25T21:05:09;11.20;;;2.55;;
44143;SDS011;68165;51.920;4.492;2023-04-25T21:07:35;7.15;;;2.10;;
44143;SDS011;68165;51.920;4.492;2023-04-25T21:10:01;8.45;;;2.30;;
44143;SDS011;68165;51.920;4.492;2023-04-25T21:12:27;6.43;;;1.90;;
44143;SDS011;68165;51.920;4.492;2023-04-25T21:14:52;6.40;;;2.25;;
44143;SDS011;68165;51.920;4.492;2023-04-25T21:17:17;9.55;;;2.05;;
44143;SDS011;68165;51.920;4.492;2023-04-25T21:19:43;8.00;;;2.13;;
44143;SDS011;68165;51.920;4.492;2023-04-25T21:22:08;9.05;;;2.50;;
44143;SDS011;68165;51.920;4.492;2023-04-25T21:24:33;11.55;;;2.67;;
44143;SDS011;68165;51.920;4.492;2023-04-25T21:26:59;6.50;;;2.08;;
44143;SDS011;68165;51.920;4.492;2023-04-25T21:29:25;9.88;;;2.10;;
44143;SDS011;68165;51.920;4.492;2023-04-25T21:31:50;7.43;;;2.20;;
44143;SDS011;68165;51.920;4.492;2023-04-25T21:34:16;5.90;;;2.15;;
44143;SDS011;68165;51.920;4.492;2023-04-25T21:36:42;9.32;;;2.65;;
44143;SDS011;68165;51.920;4.492;2023-04-25T21:39:08;8.45;;;2.60;;
44143;SDS011;68165;51.920;4.492;2023-04-25T21:41:34;13.73;;;2.50;;
44143;SDS011;68165;51.920;4.492;2023-04-25T21:44:01;6.72;;;1.67;;
44143;SDS011;68165;51.920;4.492;2023-04-25T21:46:27;9.65;;;2.50;;
44143;SDS011;68165;51.920;4.492;2023-04-25T21:48:52;6.15;;;1.63;;
44143;SDS011;68165;51.920;4.492;2023-04-25T21:51:19;5.50;;;1.52;;
44143;SDS011;68165;51.920;4.492;2023-04-25T21:53:45;7.72;;;1.77;;